Main page
METAR-TAF:

METAR-TAF

Airports :

Wings Field

Philadelphia / Blue Bell, Pennsylvania, United States

latitude: 40-08-15N, longitude: 075-15-54W, elevation: 302 ft

Current weather observation

The report was made 28 minutes ago, at 17:55 UTC
Wind 17 mph from the West with gusts up to 26 mph
Temperature 39°F
Humidity 44%
Pressure 29.67 in. Hg
Visibility: 10 miles
Broken clouds at a height of 5000 ft
Overcast at a height of 6000 ft

METAR: KLOM 271755Z AUTO 26015G23KT 10SM BKN050 OVC060 04/M07 A2967 RMK AO2 T00401069 10047 20019

Time: 13:23 (18:23 UTC)


TAF: missing

Weather observations and forecasts of more than 4000 airports (METAR and TAF reports).

The available stations are represented by yellow and red dots on the map.

Hover mouse over dot to see the name of the station.

Then click to see weather observations and forecasts.

To change the map : click on the green buttons with a black cross to zoom in, on the green button with a dash to zoom out, or on the green arrows for adjacent maps.


METAR-TAF: